Check out our new BloomSky Weather System.

Active alerts

Galveston, TX
  Details for Galveston, TX Coastal Flood Advisory  +1 additional alert


Thunder radar  blitzortung!


Rain radar more information rain snow radar


Visit our other weather sites:

Template documentation
and downloads

And another site



Weather Underground History page Text

Daily Summary for January 7, 2018 Units:  Both    English   Metric
« Previous Day
Next Day »
Daily Weekly Monthly Yearly Custom
  High: Low: Average:
Temperature: TemperatureF °F /  -17.8 °C 43.5 °F /  6.4 °C 55.8 °F /  13.2 °C
Dew Point: DewpointF °F /  -17.8 °C 42.4 °F /  5.8 °C 53.5 °F /  11.9 °C
Humidity: Humidity % 79 % 92 %
Wind Speed: WindSpeedMPH mph /  0 km/h - 1.5 mph /  2.4 km/h
Wind Gust: WindSpeedGustMPH mph /  0 km/h - -
Wind:- - SE
Pressure: PressureIn in /  0 hPa 29.88 in /  1011.7 hPa -
Precipitation: 0.00 in /  0 mm    
Historical Graphs
 
 
Tabular Data for January 7, 2018
Time Temperature Dew Point Pressure Wind Wind Speed Wind Gust Humidity Rainfall Rate (Hourly)
TemperatureF °F /  -17.8 °C DewpointF °F /  -17.8 °C PressureIn in /  0 hPa Calm     Humidity % HourlyPrecipIn in /  0 mm
00:00 48.4 °F /  9.1 °C 44.1 °F /  6.7 °C 30.24 in /  1023.9 hPa Calm   5.0 mph /  8 km/h 85 % 0.00 in /  0 mm
00:02 48.4 °F /  9.1 °C 44.1 °F /  6.7 °C 30.24 in /  1023.9 hPa SE 2.0 mph /  3.2 km/h 5.0 mph /  8 km/h 85 % 0.00 in /  0 mm
00:07 48.4 °F /  9.1 °C 44.1 °F /  6.7 °C 30.25 in /  1024.3 hPa SE 1.0 mph /  1.6 km/h 5.0 mph /  8 km/h 85 % 0.00 in /  0 mm
00:09 48.4 °F /  9.1 °C 44.1 °F /  6.7 °C 30.24 in /  1023.9 hPa East 1.0 mph /  1.6 km/h 5.0 mph /  8 km/h 85 % 0.00 in /  0 mm
00:15 48.4 °F /  9.1 °C 44.4 °F /  6.9 °C 30.25 in /  1024.3 hPa Calm   4.0 mph /  6.4 km/h 86 % 0.00 in /  0 mm
00:20 48.0 °F /  8.9 °C 44.1 °F /  6.7 °C 30.24 in /  1023.9 hPa Calm   3.0 mph /  4.8 km/h 86 % 0.00 in /  0 mm
00:25 47.8 °F /  8.8 °C 43.9 °F /  6.6 °C 30.24 in /  1023.9 hPa Calm   3.0 mph /  4.8 km/h 86 % 0.00 in /  0 mm
00:30 47.8 °F /  8.8 °C 43.9 °F /  6.6 °C 30.23 in /  1023.6 hPa Calm   3.0 mph /  4.8 km/h 86 % 0.00 in /  0 mm
00:35 47.7 °F /  8.7 °C 44.1 °F /  6.7 °C 30.23 in /  1023.6 hPa ESE 1.0 mph /  1.6 km/h 3.0 mph /  4.8 km/h 87 % 0.00 in /  0 mm
00:37 47.7 °F /  8.7 °C 44.1 °F /  6.7 °C 30.23 in /  1023.6 hPa Calm   3.0 mph /  4.8 km/h 87 % 0.00 in /  0 mm
00:38 47.7 °F /  8.7 °C 44.1 °F /  6.7 °C 30.23 in /  1023.6 hPa Calm   3.0 mph /  4.8 km/h 87 % 0.00 in /  0 mm
00:44 47.5 °F /  8.6 °C 43.9 °F /  6.6 °C 30.23 in /  1023.6 hPa Calm   2.0 mph /  3.2 km/h 87 % 0.00 in /  0 mm
00:49 47.3 °F /  8.5 °C 43.7 °F /  6.5 °C 30.23 in /  1023.6 hPa Calm   2.0 mph /  3.2 km/h 87 % 0.00 in /  0 mm
00:55 47.1 °F /  8.4 °C 43.7 °F /  6.5 °C 30.22 in /  1023.2 hPa ESE 1.0 mph /  1.6 km/h 2.0 mph /  3.2 km/h 88 % 0.00 in /  0 mm
00:59 47.3 °F /  8.5 °C 43.9 °F /  6.6 °C 30.22 in /  1023.2 hPa Calm   2.0 mph /  3.2 km/h 88 % 0.00 in /  0 mm
01:04 47.1 °F /  8.4 °C 43.7 °F /  6.5 °C 30.22 in /  1023.2 hPa Calm   2.0 mph /  3.2 km/h 88 % 0.00 in /  0 mm
01:09 46.8 °F /  8.2 °C 43.3 °F /  6.3 °C 30.22 in /  1023.2 hPa Calm   2.0 mph /  3.2 km/h 88 % 0.00 in /  0 mm
01:11 46.8 °F /  8.2 °C 43.7 °F /  6.5 °C 30.22 in /  1023.2 hPa Calm   2.0 mph /  3.2 km/h 89 % 0.00 in /  0 mm
01:16 46.6 °F /  8.1 °C 43.5 °F /  6.4 °C 30.22 in /  1023.2 hPa Calm     89 % 0.00 in /  0 mm
01:21 46.2 °F /  7.9 °C 43.2 °F /  6.2 °C 30.22 in /  1023.2 hPa Calm   1.0 mph /  1.6 km/h 89 % 0.00 in /  0 mm
01:22 46.2 °F /  7.9 °C 43.2 °F /  6.2 °C 30.22 in /  1023.2 hPa Calm   1.0 mph /  1.6 km/h 89 % 0.00 in /  0 mm
01:28 46.2 °F /  7.9 °C 43.5 °F /  6.4 °C 30.21 in /  1022.9 hPa Calm   1.0 mph /  1.6 km/h 90 % 0.00 in /  0 mm
01:33 46.0 °F /  7.8 °C 43.3 °F /  6.3 °C 30.21 in /  1022.9 hPa Calm   1.0 mph /  1.6 km/h 90 % 0.00 in /  0 mm
01:38 46.0 °F /  7.8 °C 43.3 °F /  6.3 °C 30.21 in /  1022.9 hPa Calm   1.0 mph /  1.6 km/h 90 % 0.00 in /  0 mm
01:43 46.0 °F /  7.8 °C 43.5 °F /  6.4 °C 30.21 in /  1022.9 hPa Calm     91 % 0.00 in /  0 mm
01:48 46.0 °F /  7.8 °C 43.5 °F /  6.4 °C 30.20 in /  1022.6 hPa Calm     91 % 0.00 in /  0 mm
01:53 45.9 °F /  7.7 °C 43.3 °F /  6.3 °C 30.20 in /  1022.6 hPa Calm     91 % 0.00 in /  0 mm
01:58 45.9 °F /  7.7 °C 43.3 °F /  6.3 °C 30.20 in /  1022.6 hPa Calm   1.0 mph /  1.6 km/h 91 % 0.00 in /  0 mm
01:59 45.9 °F /  7.7 °C 43.3 °F /  6.3 °C 30.20 in /  1022.6 hPa Calm   1.0 mph /  1.6 km/h 91 % 0.00 in /  0 mm
02:04 45.9 °F /  7.7 °C 43.7 °F /  6.5 °C 30.20 in /  1022.6 hPa Calm   1.0 mph /  1.6 km/h 92 % 0.00 in /  0 mm
02:06 45.9 °F /  7.7 °C 43.7 °F /  6.5 °C 30.20 in /  1022.6 hPa Calm   1.0 mph /  1.6 km/h 92 % 0.00 in /  0 mm
02:11 46.0 °F /  7.8 °C 43.9 °F /  6.6 °C 30.20 in /  1022.6 hPa Calm   1.0 mph /  1.6 km/h 92 % 0.00 in /  0 mm
02:16 46.0 °F /  7.8 °C 44.1 °F /  6.7 °C 30.20 in /  1022.6 hPa Calm   1.0 mph /  1.6 km/h 93 % 0.00 in /  0 mm
02:21 46.0 °F /  7.8 °C 44.1 °F /  6.7 °C 30.20 in /  1022.6 hPa Calm   1.0 mph /  1.6 km/h 93 % 0.00 in /  0 mm
02:26 46.2 °F /  7.9 °C 44.2 °F /  6.8 °C 30.19 in /  1022.2 hPa Calm   1.0 mph /  1.6 km/h 93 % 0.00 in /  0 mm
02:31 46.2 °F /  7.9 °C 44.2 °F /  6.8 °C 30.19 in /  1022.2 hPa Calm   1.0 mph /  1.6 km/h 93 % 0.00 in /  0 mm
02:33 46.2 °F /  7.9 °C 44.2 °F /  6.8 °C 30.19 in /  1022.2 hPa Calm   1.0 mph /  1.6 km/h 93 % 0.00 in /  0 mm
02:34 46.2 °F /  7.9 °C 44.2 °F /  6.8 °C 30.19 in /  1022.2 hPa Calm   1.0 mph /  1.6 km/h 93 % 0.00 in /  0 mm
02:39 46.2 °F /  7.9 °C 44.2 °F /  6.8 °C 30.19 in /  1022.2 hPa Calm   1.0 mph /  1.6 km/h 93 % 0.00 in /  0 mm
02:42 46.2 °F /  7.9 °C 44.2 °F /  6.8 °C 30.19 in /  1022.2 hPa Calm   1.0 mph /  1.6 km/h 93 % 0.00 in /  0 mm
02:47 46.2 °F /  7.9 °C 44.2 °F /  6.8 °C 30.18 in /  1021.9 hPa Calm   1.0 mph /  1.6 km/h 93 % 0.00 in /  0 mm
02:52 46.2 °F /  7.9 °C 44.2 °F /  6.8 °C 30.18 in /  1021.9 hPa Calm     93 % 0.00 in /  0 mm
02:53 46.2 °F /  7.9 °C 44.2 °F /  6.8 °C 30.18 in /  1021.9 hPa Calm     93 % 0.00 in /  0 mm
02:58 46.2 °F /  7.9 °C 44.6 °F /  7 °C 30.18 in /  1021.9 hPa Calm   1.0 mph /  1.6 km/h 94 % 0.00 in /  0 mm
03:03 46.2 °F /  7.9 °C 44.2 °F /  6.8 °C 30.18 in /  1021.9 hPa Calm   1.0 mph /  1.6 km/h 93 % 0.00 in /  0 mm
03:08 46.0 °F /  7.8 °C 44.4 °F /  6.9 °C 30.18 in /  1021.9 hPa Calm   1.0 mph /  1.6 km/h 94 % 0.00 in /  0 mm
03:13 46.0 °F /  7.8 °C 44.4 °F /  6.9 °C 30.18 in /  1021.9 hPa Calm     94 % 0.00 in /  0 mm
03:14 46.0 °F /  7.8 °C 44.4 °F /  6.9 °C 30.18 in /  1021.9 hPa Calm     94 % 0.00 in /  0 mm
03:19 45.9 °F /  7.7 °C 44.2 °F /  6.8 °C 30.17 in /  1021.6 hPa Calm     94 % 0.00 in /  0 mm
03:22 45.9 °F /  7.7 °C 44.2 °F /  6.8 °C 30.17 in /  1021.6 hPa Calm     94 % 0.00 in /  0 mm
03:27 45.7 °F /  7.6 °C 44.1 °F /  6.7 °C 30.18 in /  1021.9 hPa Calm     94 % 0.00 in /  0 mm
03:29 45.7 °F /  7.6 °C 44.1 °F /  6.7 °C 30.17 in /  1021.6 hPa Calm     94 % 0.00 in /  0 mm
03:34 45.7 °F /  7.6 °C 44.1 °F /  6.7 °C 30.17 in /  1021.6 hPa Calm   1.0 mph /  1.6 km/h 94 % 0.00 in /  0 mm
03:35 45.5 °F /  7.5 °C 43.9 °F /  6.6 °C 30.17 in /  1021.6 hPa Calm   1.0 mph /  1.6 km/h 94 % 0.00 in /  0 mm
03:40 45.3 °F /  7.4 °C 43.7 °F /  6.5 °C 30.17 in /  1021.6 hPa Calm   1.0 mph /  1.6 km/h 94 % 0.00 in /  0 mm
03:41 45.3 °F /  7.4 °C 43.7 °F /  6.5 °C 30.17 in /  1021.6 hPa Calm   1.0 mph /  1.6 km/h 94 % 0.00 in /  0 mm
03:46 45.3 °F /  7.4 °C 43.7 °F /  6.5 °C 30.17 in /  1021.6 hPa Calm   1.0 mph /  1.6 km/h 94 % 0.00 in /  0 mm
03:49 45.1 °F /  7.3 °C 43.5 °F /  6.4 °C 30.17 in /  1021.6 hPa Calm   1.0 mph /  1.6 km/h 94 % 0.00 in /  0 mm
03:54 45.1 °F /  7.3 °C 43.5 °F /  6.4 °C 30.17 in /  1021.6 hPa Calm   1.0 mph /  1.6 km/h 94 % 0.00 in /  0 mm
03:57 45.1 °F /  7.3 °C 43.9 °F /  6.6 °C 30.17 in /  1021.6 hPa Calm   1.0 mph /  1.6 km/h 95 % 0.00 in /  0 mm
04:02 45.0 °F /  7.2 °C 43.7 °F /  6.5 °C 30.17 in /  1021.6 hPa Calm     95 % 0.00 in /  0 mm
04:05 45.0 °F /  7.2 °C 43.7 °F /  6.5 °C 30.17 in /  1021.6 hPa Calm     95 % 0.00 in /  0 mm
04:10 44.8 °F /  7.1 °C 43.5 °F /  6.4 °C 30.17 in /  1021.6 hPa Calm   1.0 mph /  1.6 km/h 95 % 0.00 in /  0 mm
04:12 44.8 °F /  7.1 °C 43.5 °F /  6.4 °C 30.17 in /  1021.6 hPa Calm   1.0 mph /  1.6 km/h 95 % 0.00 in /  0 mm
04:17 44.4 °F /  6.9 °C 43.2 °F /  6.2 °C 30.17 in /  1021.6 hPa Calm   1.0 mph /  1.6 km/h 95 % 0.00 in /  0 mm
04:22 44.2 °F /  6.8 °C 43.0 °F /  6.1 °C 30.16 in /  1021.2 hPa Calm   1.0 mph /  1.6 km/h 95 % 0.00 in /  0 mm
04:27 44.1 °F /  6.7 °C 42.8 °F /  6 °C 30.16 in /  1021.2 hPa Calm   1.0 mph /  1.6 km/h 95 % 0.00 in /  0 mm
04:31 44.1 °F /  6.7 °C 42.8 °F /  6 °C 30.16 in /  1021.2 hPa Calm   1.0 mph /  1.6 km/h 95 % 0.00 in /  0 mm
04:35 44.1 °F /  6.7 °C 42.8 °F /  6 °C 30.16 in /  1021.2 hPa Calm     95 % 0.00 in /  0 mm
04:36 43.9 °F /  6.6 °C 42.6 °F /  5.9 °C 30.16 in /  1021.2 hPa Calm     95 % 0.00 in /  0 mm
04:42 43.9 °F /  6.6 °C 42.6 °F /  5.9 °C 30.16 in /  1021.2 hPa Calm     95 % 0.00 in /  0 mm
04:43 43.9 °F /  6.6 °C 42.6 °F /  5.9 °C 30.16 in /  1021.2 hPa Calm     95 % 0.00 in /  0 mm
04:48 43.9 °F /  6.6 °C 42.6 °F /  5.9 °C 30.15 in /  1020.9 hPa SE 1.0 mph /  1.6 km/h   95 % 0.00 in /  0 mm
04:51 43.9 °F /  6.6 °C 42.6 °F /  5.9 °C 30.15 in /  1020.9 hPa Calm   1.0 mph /  1.6 km/h 95 % 0.00 in /  0 mm
04:53 43.9 °F /  6.6 °C 42.8 °F /  6 °C 30.15 in /  1020.9 hPa Calm   1.0 mph /  1.6 km/h 96 % 0.00 in /  0 mm
04:58 43.9 °F /  6.6 °C 42.8 °F /  6 °C 30.15 in /  1020.9 hPa Calm   1.0 mph /  1.6 km/h 96 % 0.00 in /  0 mm
05:03 43.7 °F /  6.5 °C 42.6 °F /  5.9 °C 30.15 in /  1020.9 hPa Calm   1.0 mph /  1.6 km/h 96 % 0.00 in /  0 mm
05:05 43.7 °F /  6.5 °C 42.6 °F /  5.9 °C 30.15 in /  1020.9 hPa Calm   1.0 mph /  1.6 km/h 96 % 0.00 in /  0 mm
05:07 43.7 °F /  6.5 °C 42.6 °F /  5.9 °C 30.15 in /  1020.9 hPa Calm   1.0 mph /  1.6 km/h 96 % 0.00 in /  0 mm
05:10 43.5 °F /  6.4 °C 42.4 °F /  5.8 °C 30.15 in /  1020.9 hPa Calm   1.0 mph /  1.6 km/h 96 % 0.00 in /  0 mm
05:13 43.7 °F /  6.5 °C 42.6 °F /  5.9 °C 30.15 in /  1020.9 hPa Calm   1.0 mph /  1.6 km/h 96 % 0.00 in /  0 mm
05:17 43.9 °F /  6.6 °C 42.8 °F /  6 °C 30.15 in /  1020.9 hPa Calm   1.0 mph /  1.6 km/h 96 % 0.00 in /  0 mm
05:22 44.1 °F /  6.7 °C 43.0 °F /  6.1 °C 30.15 in /  1020.9 hPa Calm   1.0 mph /  1.6 km/h 96 % 0.00 in /  0 mm
05:23 44.1 °F /  6.7 °C 43.0 °F /  6.1 °C 30.15 in /  1020.9 hPa Calm   1.0 mph /  1.6 km/h 96 % 0.00 in /  0 mm
05:28 44.2 °F /  6.8 °C 43.2 °F /  6.2 °C 30.15 in /  1020.9 hPa Calm   1.0 mph /  1.6 km/h 96 % 0.00 in /  0 mm
05:31 44.1 °F /  6.7 °C 43.0 °F /  6.1 °C 30.15 in /  1020.9 hPa Calm   1.0 mph /  1.6 km/h 96 % 0.00 in /  0 mm
05:32 44.1 °F /  6.7 °C 43.0 °F /  6.1 °C 30.15 in /  1020.9 hPa Calm   1.0 mph /  1.6 km/h 96 % 0.00 in /  0 mm
05:38 44.1 °F /  6.7 °C 43.0 °F /  6.1 °C 30.16 in /  1021.2 hPa Calm   1.0 mph /  1.6 km/h 96 % 0.00 in /  0 mm
05:39 44.1 °F /  6.7 °C 43.0 °F /  6.1 °C 30.16 in /  1021.2 hPa Calm   1.0 mph /  1.6 km/h 96 % 0.00 in /  0 mm
05:42 44.2 °F /  6.8 °C 43.2 °F /  6.2 °C 30.15 in /  1020.9 hPa Calm   1.0 mph /  1.6 km/h 96 % 0.00 in /  0 mm
05:46 44.2 °F /  6.8 °C 43.2 °F /  6.2 °C 30.15 in /  1020.9 hPa Calm   1.0 mph /  1.6 km/h 96 % 0.00 in /  0 mm
05:48 44.2 °F /  6.8 °C 43.2 °F /  6.2 °C 30.15 in /  1020.9 hPa Calm   1.0 mph /  1.6 km/h 96 % 0.00 in /  0 mm
05:51 44.2 °F /  6.8 °C 43.5 °F /  6.4 °C 30.15 in /  1020.9 hPa Calm   1.0 mph /  1.6 km/h 97 % 0.00 in /  0 mm
05:57 44.4 °F /  6.9 °C 43.7 °F /  6.5 °C 30.15 in /  1020.9 hPa Calm     97 % 0.00 in /  0 mm
06:02 44.4 °F /  6.9 °C 43.7 °F /  6.5 °C 30.15 in /  1020.9 hPa Calm     97 % 0.00 in /  0 mm
06:03 44.4 °F /  6.9 °C 43.7 °F /  6.5 °C 30.15 in /  1020.9 hPa Calm     97 % 0.00 in /  0 mm
06:08 44.6 °F /  7 °C 43.9 °F /  6.6 °C 30.14 in /  1020.5 hPa Calm     97 % 0.00 in /  0 mm
06:09 44.8 °F /  7.1 °C 44.1 °F /  6.7 °C 30.14 in /  1020.5 hPa Calm     97 % 0.00 in /  0 mm
06:14 44.8 °F /  7.1 °C 44.1 °F /  6.7 °C 30.14 in /  1020.5 hPa Calm     97 % 0.00 in /  0 mm
06:15 44.8 °F /  7.1 °C 44.1 °F /  6.7 °C 30.14 in /  1020.5 hPa Calm     97 % 0.00 in /  0 mm
06:16 44.8 °F /  7.1 °C 44.1 °F /  6.7 °C 30.14 in /  1020.5 hPa Calm     97 % 0.00 in /  0 mm
06:21 45.0 °F /  7.2 °C 44.2 °F /  6.8 °C 30.14 in /  1020.5 hPa Calm     97 % 0.00 in /  0 mm
06:26 45.1 °F /  7.3 °C 44.4 °F /  6.9 °C 30.14 in /  1020.5 hPa Calm   1.0 mph /  1.6 km/h 97 % 0.00 in /  0 mm
06:29 45.3 °F /  7.4 °C 44.6 °F /  7 °C 30.14 in /  1020.5 hPa Calm   1.0 mph /  1.6 km/h 97 % 0.00 in /  0 mm
06:34 45.9 °F /  7.7 °C 45.3 °F /  7.4 °C 30.14 in /  1020.5 hPa Calm   1.0 mph /  1.6 km/h 98 % 0.00 in /  0 mm
06:39 46.0 °F /  7.8 °C 45.3 °F /  7.4 °C 30.14 in /  1020.5 hPa Calm   1.0 mph /  1.6 km/h 97 % 0.00 in /  0 mm
06:44 46.0 °F /  7.8 °C 45.3 °F /  7.4 °C 30.14 in /  1020.5 hPa Calm   1.0 mph /  1.6 km/h 97 % 0.00 in /  0 mm
06:49 46.2 °F /  7.9 °C 45.5 °F /  7.5 °C 30.14 in /  1020.5 hPa Calm   1.0 mph /  1.6 km/h 97 % 0.00 in /  0 mm
06:50 46.2 °F /  7.9 °C 45.5 °F /  7.5 °C 30.14 in /  1020.5 hPa Calm   1.0 mph /  1.6 km/h 97 % 0.00 in /  0 mm
06:55 46.2 °F /  7.9 °C 45.5 °F /  7.5 °C 30.14 in /  1020.5 hPa Calm   1.0 mph /  1.6 km/h 97 % 0.00 in /  0 mm
07:00 46.2 °F /  7.9 °C 45.5 °F /  7.5 °C 30.14 in /  1020.5 hPa Calm   1.0 mph /  1.6 km/h 97 % 0.00 in /  0 mm
07:06 46.2 °F /  7.9 °C 45.5 °F /  7.5 °C 30.14 in /  1020.5 hPa Calm   1.0 mph /  1.6 km/h 97 % 0.00 in /  0 mm
07:07 46.2 °F /  7.9 °C 45.5 °F /  7.5 °C 30.14 in /  1020.5 hPa Calm   1.0 mph /  1.6 km/h 97 % 0.00 in /  0 mm
07:12 46.0 °F /  7.8 °C 45.3 °F /  7.4 °C 30.14 in /  1020.5 hPa Calm   1.0 mph /  1.6 km/h 97 % 0.00 in /  0 mm
07:17 46.0 °F /  7.8 °C 45.3 °F /  7.4 °C 30.13 in /  1020.2 hPa Calm     97 % 0.00 in /  0 mm
07:22 46.2 °F /  7.9 °C 45.5 °F /  7.5 °C 30.13 in /  1020.2 hPa Calm     97 % 0.00 in /  0 mm
07:27 46.8 °F /  8.2 °C 46.2 °F /  7.9 °C 30.13 in /  1020.2 hPa Calm   1.0 mph /  1.6 km/h 98 % 0.00 in /  0 mm
07:32 46.9 °F /  8.3 °C 46.4 °F /  8 °C 30.13 in /  1020.2 hPa Calm   1.0 mph /  1.6 km/h 98 % 0.00 in /  0 mm
07:37 47.3 °F /  8.5 °C 46.8 °F /  8.2 °C 30.13 in /  1020.2 hPa Calm   1.0 mph /  1.6 km/h 98 % 0.00 in /  0 mm
07:42 47.8 °F /  8.8 °C 47.3 °F /  8.5 °C 30.13 in /  1020.2 hPa Calm   2.0 mph /  3.2 km/h 98 % 0.00 in /  0 mm
07:45 48.0 °F /  8.9 °C 47.5 °F /  8.6 °C 30.13 in /  1020.2 hPa ESE 1.0 mph /  1.6 km/h 2.0 mph /  3.2 km/h 98 % 0.00 in /  0 mm
07:50 48.7 °F /  9.3 °C 48.2 °F /  9 °C 30.13 in /  1020.2 hPa Calm   2.0 mph /  3.2 km/h 98 % 0.00 in /  0 mm
07:55 49.1 °F /  9.5 °C 48.6 °F /  9.2 °C 30.13 in /  1020.2 hPa South 2.0 mph /  3.2 km/h 2.0 mph /  3.2 km/h 98 % 0.00 in /  0 mm
07:57 49.3 °F /  9.6 °C 48.7 °F /  9.3 °C 30.13 in /  1020.2 hPa SE 1.0 mph /  1.6 km/h 2.0 mph /  3.2 km/h 98 % 0.00 in /  0 mm
07:58 49.3 °F /  9.6 °C 48.7 °F /  9.3 °C 30.13 in /  1020.2 hPa Calm   2.0 mph /  3.2 km/h 98 % 0.00 in /  0 mm
08:03 49.6 °F /  9.8 °C 49.1 °F /  9.5 °C 30.13 in /  1020.2 hPa East 1.0 mph /  1.6 km/h 3.0 mph /  4.8 km/h 98 % 0.00 in /  0 mm
08:06 49.8 °F /  9.9 °C 49.3 °F /  9.6 °C 30.13 in /  1020.2 hPa Calm   3.0 mph /  4.8 km/h 98 % 0.00 in /  0 mm
08:11 50.2 °F /  10.1 °C 49.6 °F /  9.8 °C 30.13 in /  1020.2 hPa SE 1.0 mph /  1.6 km/h 3.0 mph /  4.8 km/h 98 % 0.00 in /  0 mm
08:12 50.2 °F /  10.1 °C 49.6 °F /  9.8 °C 30.13 in /  1020.2 hPa ESE 1.0 mph /  1.6 km/h 3.0 mph /  4.8 km/h 98 % 0.00 in /  0 mm
08:17 50.7 °F /  10.4 °C 50.2 °F /  10.1 °C 30.13 in /  1020.2 hPa Calm   5.0 mph /  8 km/h 98 % 0.00 in /  0 mm
08:22 51.3 °F /  10.7 °C 50.9 °F /  10.5 °C 30.13 in /  1020.2 hPa ESE 2.0 mph /  3.2 km/h 5.0 mph /  8 km/h 99 % 0.00 in /  0 mm
08:26 51.6 °F /  10.9 °C 51.3 °F /  10.7 °C 30.13 in /  1020.2 hPa ESE 2.0 mph /  3.2 km/h 5.0 mph /  8 km/h 99 % 0.00 in /  0 mm
08:27 51.6 °F /  10.9 °C 51.3 °F /  10.7 °C 30.13 in /  1020.2 hPa ESE 2.0 mph /  3.2 km/h 5.0 mph /  8 km/h 99 % 0.00 in /  0 mm
08:32 52.2 °F /  11.2 °C 51.8 °F /  11 °C 30.13 in /  1020.2 hPa ESE 2.0 mph /  3.2 km/h 5.0 mph /  8 km/h 99 % 0.00 in /  0 mm
08:37 52.5 °F /  11.4 °C 52.2 °F /  11.2 °C 30.13 in /  1020.2 hPa SSE 3.0 mph /  4.8 km/h 6.0 mph /  9.7 km/h 99 % 0.00 in /  0 mm
08:39 52.7 °F /  11.5 °C 52.3 °F /  11.3 °C 30.13 in /  1020.2 hPa SE 3.0 mph /  4.8 km/h 6.0 mph /  9.7 km/h 99 % 0.00 in /  0 mm
08:42 53.1 °F /  11.7 °C 52.7 °F /  11.5 °C 30.13 in /  1020.2 hPa ESE 5.0 mph /  8 km/h 6.0 mph /  9.7 km/h 99 % 0.00 in /  0 mm
08:44 53.2 °F /  11.8 °C 52.9 °F /  11.6 °C 30.12 in /  1019.9 hPa ESE 3.0 mph /  4.8 km/h 6.0 mph /  9.7 km/h 99 % 0.00 in /  0 mm
08:49 53.4 °F /  11.9 °C 53.1 °F /  11.7 °C 30.12 in /  1019.9 hPa ESE 5.0 mph /  8 km/h 8.0 mph /  12.9 km/h 99 % 0.00 in /  0 mm
08:54 53.8 °F /  12.1 °C 53.4 °F /  11.9 °C 30.11 in /  1019.5 hPa SSE 6.0 mph /  9.7 km/h 8.0 mph /  12.9 km/h 99 % 0.00 in /  0 mm
08:56 54.0 °F /  12.2 °C 53.6 °F /  12 °C 30.11 in /  1019.5 hPa SSW 4.0 mph /  6.4 km/h 11.0 mph /  17.7 km/h 99 % 0.00 in /  0 mm
09:01 54.1 °F /  12.3 °C 53.8 °F /  12.1 °C 30.11 in /  1019.5 hPa SE 4.0 mph /  6.4 km/h 11.0 mph /  17.7 km/h 99 % 0.00 in /  0 mm
09:03 54.3 °F /  12.4 °C 54.0 °F /  12.2 °C 30.11 in /  1019.5 hPa SE 1.0 mph /  1.6 km/h 11.0 mph /  17.7 km/h 99 % 0.00 in /  0 mm
09:08 54.7 °F /  12.6 °C 54.3 °F /  12.4 °C 30.12 in /  1019.9 hPa SE 3.0 mph /  4.8 km/h 11.0 mph /  17.7 km/h 99 % 0.00 in /  0 mm
09:13 55.0 °F /  12.8 °C 54.7 °F /  12.6 °C 30.12 in /  1019.9 hPa East 1.0 mph /  1.6 km/h 11.0 mph /  17.7 km/h 99 % 0.00 in /  0 mm
09:18 55.4 °F /  13 °C 55.0 °F /  12.8 °C 30.13 in /  1020.2 hPa South 3.0 mph /  4.8 km/h 8.0 mph /  12.9 km/h 99 % 0.00 in /  0 mm
09:23 55.8 °F /  13.2 °C 55.4 °F /  13 °C 30.12 in /  1019.9 hPa SE 4.0 mph /  6.4 km/h 8.0 mph /  12.9 km/h 99 % 0.00 in /  0 mm
09:28 55.9 °F /  13.3 °C 55.6 °F /  13.1 °C 30.12 in /  1019.9 hPa SE 3.0 mph /  4.8 km/h 9.0 mph /  14.5 km/h 99 % 0.00 in /  0 mm
09:33 56.1 °F /  13.4 °C 55.6 °F /  13.1 °C 30.12 in /  1019.9 hPa SSE 3.0 mph /  4.8 km/h 9.0 mph /  14.5 km/h 98 % 0.00 in /  0 mm
09:38 56.3 °F /  13.5 °C 55.8 °F /  13.2 °C 30.11 in /  1019.5 hPa SSE 3.0 mph /  4.8 km/h 9.0 mph /  14.5 km/h 98 % 0.00 in /  0 mm
09:43 56.7 °F /  13.7 °C 56.1 °F /  13.4 °C 30.12 in /  1019.9 hPa SE 3.0 mph /  4.8 km/h 9.0 mph /  14.5 km/h 98 % 0.00 in /  0 mm
09:46 56.7 °F /  13.7 °C 56.1 °F /  13.4 °C 30.12 in /  1019.9 hPa SSE 3.0 mph /  4.8 km/h 9.0 mph /  14.5 km/h 98 % 0.00 in /  0 mm
09:51 56.8 °F /  13.8 °C 56.3 °F /  13.5 °C 30.11 in /  1019.5 hPa SE 4.0 mph /  6.4 km/h 8.0 mph /  12.9 km/h 98 % 0.00 in /  0 mm
09:56 57.0 °F /  13.9 °C 56.5 °F /  13.6 °C 30.11 in /  1019.5 hPa South 3.0 mph /  4.8 km/h 7.0 mph /  11.3 km/h 98 % 0.00 in /  0 mm
09:58 57.2 °F /  14 °C 56.7 °F /  13.7 °C 30.12 in /  1019.9 hPa SSE 2.0 mph /  3.2 km/h 7.0 mph /  11.3 km/h 98 % 0.00 in /  0 mm
10:01 57.4 °F /  14.1 °C 56.8 °F /  13.8 °C 30.12 in /  1019.9 hPa South 3.0 mph /  4.8 km/h 7.0 mph /  11.3 km/h 98 % 0.00 in /  0 mm
10:06 57.6 °F /  14.2 °C 57.0 °F /  13.9 °C 30.11 in /  1019.5 hPa East 7.0 mph /  11.3 km/h 7.0 mph /  11.3 km/h 98 % 0.00 in /  0 mm
10:11 57.7 °F /  14.3 °C 57.2 °F /  14 °C 30.11 in /  1019.5 hPa SSE 4.0 mph /  6.4 km/h 8.0 mph /  12.9 km/h 98 % 0.00 in /  0 mm
10:16 57.9 °F /  14.4 °C 57.4 °F /  14.1 °C 30.11 in /  1019.5 hPa SE 3.0 mph /  4.8 km/h 8.0 mph /  12.9 km/h 98 % 0.00 in /  0 mm
10:21 58.3 °F /  14.6 °C 57.7 °F /  14.3 °C 30.11 in /  1019.5 hPa SSE 4.0 mph /  6.4 km/h 8.0 mph /  12.9 km/h 98 % 0.00 in /  0 mm
10:22 58.3 °F /  14.6 °C 57.7 °F /  14.3 °C 30.11 in /  1019.5 hPa SE 3.0 mph /  4.8 km/h 8.0 mph /  12.9 km/h 98 % 0.00 in /  0 mm
10:24 58.3 °F /  14.6 °C 57.7 °F /  14.3 °C 30.11 in /  1019.5 hPa SE 3.0 mph /  4.8 km/h 8.0 mph /  12.9 km/h 98 % 0.00 in /  0 mm
10:29 58.6 °F /  14.8 °C 57.7 °F /  14.3 °C 30.11 in /  1019.5 hPa SSE 2.0 mph /  3.2 km/h 8.0 mph /  12.9 km/h 97 % 0.00 in /  0 mm
10:34 58.8 °F /  14.9 °C 58.3 °F /  14.6 °C 30.11 in /  1019.5 hPa SE 3.0 mph /  4.8 km/h 7.0 mph /  11.3 km/h 98 % 0.00 in /  0 mm
10:38 59.2 °F /  15.1 °C 58.3 °F /  14.6 °C 30.11 in /  1019.5 hPa SE 3.0 mph /  4.8 km/h 7.0 mph /  11.3 km/h 97 % 0.00 in /  0 mm
10:43 59.5 °F /  15.3 °C 58.6 °F /  14.8 °C 30.10 in /  1019.2 hPa ESE 6.0 mph /  9.7 km/h 7.0 mph /  11.3 km/h 97 % 0.00 in /  0 mm
10:45 59.5 °F /  15.3 °C 58.6 °F /  14.8 °C 30.11 in /  1019.5 hPa East 9.0 mph /  14.5 km/h 9.0 mph /  14.5 km/h 97 % 0.00 in /  0 mm
10:50 59.7 °F /  15.4 °C 58.8 °F /  14.9 °C 30.11 in /  1019.5 hPa SSE 2.0 mph /  3.2 km/h 9.0 mph /  14.5 km/h 97 % 0.00 in /  0 mm
10:51 59.7 °F /  15.4 °C 58.8 °F /  14.9 °C 30.11 in /  1019.5 hPa SE 5.0 mph /  8 km/h 9.0 mph /  14.5 km/h 97 % 0.00 in /  0 mm
10:56 60.1 °F /  15.6 °C 59.0 °F /  15 °C 30.11 in /  1019.5 hPa SE 2.0 mph /  3.2 km/h 9.0 mph /  14.5 km/h 96 % 0.00 in /  0 mm
11:01 60.3 °F /  15.7 °C 59.2 °F /  15.1 °C 30.11 in /  1019.5 hPa SSW 2.0 mph /  3.2 km/h 8.0 mph /  12.9 km/h 96 % 0.00 in /  0 mm
11:05 60.4 °F /  15.8 °C 59.4 °F /  15.2 °C 30.11 in /  1019.5 hPa SE 4.0 mph /  6.4 km/h 8.0 mph /  12.9 km/h 96 % 0.00 in /  0 mm
11:10 60.6 °F /  15.9 °C 59.5 °F /  15.3 °C 30.11 in /  1019.5 hPa South 4.0 mph /  6.4 km/h 7.0 mph /  11.3 km/h 96 % 0.00 in /  0 mm
11:14 60.8 °F /  16 °C 59.4 °F /  15.2 °C 30.11 in /  1019.5 hPa SE 8.0 mph /  12.9 km/h 8.0 mph /  12.9 km/h 95 % 0.00 in /  0 mm
11:19 61.0 °F /  16.1 °C 59.5 °F /  15.3 °C 30.11 in /  1019.5 hPa SSE 5.0 mph /  8 km/h 9.0 mph /  14.5 km/h 95 % 0.00 in /  0 mm
11:24 61.2 °F /  16.2 °C 59.7 °F /  15.4 °C 30.10 in /  1019.2 hPa SE 8.0 mph /  12.9 km/h 9.0 mph /  14.5 km/h 95 % 0.00 in /  0 mm
11:29 61.3 °F /  16.3 °C 59.5 °F /  15.3 °C 30.10 in /  1019.2 hPa SE 4.0 mph /  6.4 km/h 9.0 mph /  14.5 km/h 94 % 0.00 in /  0 mm
11:35 61.3 °F /  16.3 °C 59.5 °F /  15.3 °C 30.09 in /  1018.8 hPa SE 5.0 mph /  8 km/h 8.0 mph /  12.9 km/h 94 % 0.00 in /  0 mm
11:39 61.9 °F /  16.6 °C 60.1 °F /  15.6 °C 30.09 in /  1018.8 hPa ESE 6.0 mph /  9.7 km/h 8.0 mph /  12.9 km/h 94 % 0.00 in /  0 mm
11:44 62.4 °F /  16.9 °C 60.6 °F /  15.9 °C 30.08 in /  1018.5 hPa SSE 3.0 mph /  4.8 km/h 8.0 mph /  12.9 km/h 94 % 0.00 in /  0 mm
11:49 63.0 °F /  17.2 °C 60.6 °F /  15.9 °C 30.08 in /  1018.5 hPa SE 4.0 mph /  6.4 km/h 8.0 mph /  12.9 km/h 92 % 0.00 in /  0 mm
11:54 63.5 °F /  17.5 °C 61.2 °F /  16.2 °C 30.07 in /  1018.2 hPa East 6.0 mph /  9.7 km/h 10.0 mph /  16.1 km/h 92 % 0.00 in /  0 mm
11:59 63.9 °F /  17.7 °C 60.6 °F /  15.9 °C 30.06 in /  1017.8 hPa SE 7.0 mph /  11.3 km/h 10.0 mph /  16.1 km/h 89 % 0.00 in /  0 mm
12:00 64.0 °F /  17.8 °C 60.8 °F /  16 °C 30.06 in /  1017.8 hPa SSE 7.0 mph /  11.3 km/h 11.0 mph /  17.7 km/h 89 % 0.00 in /  0 mm
12:06 64.6 °F /  18.1 °C 61.0 °F /  16.1 °C 30.05 in /  1017.5 hPa SE 7.0 mph /  11.3 km/h 11.0 mph /  17.7 km/h 88 % 0.00 in /  0 mm
12:09 64.9 °F /  18.3 °C 61.3 °F /  16.3 °C 30.05 in /  1017.5 hPa South 5.0 mph /  8 km/h 11.0 mph /  17.7 km/h 88 % 0.00 in /  0 mm
12:14 65.8 °F /  18.8 °C 61.9 °F /  16.6 °C 30.04 in /  1017.2 hPa South 6.0 mph /  9.7 km/h 11.0 mph /  17.7 km/h 87 % 0.00 in /  0 mm
12:19 66.4 °F /  19.1 °C 61.7 °F /  16.5 °C 30.04 in /  1017.2 hPa South 5.0 mph /  8 km/h 11.0 mph /  17.7 km/h 85 % 0.00 in /  0 mm
12:25 66.6 °F /  19.2 °C 61.9 °F /  16.6 °C 30.04 in /  1017.2 hPa SSW 2.0 mph /  3.2 km/h 11.0 mph /  17.7 km/h 85 % 0.00 in /  0 mm
12:28 66.9 °F /  19.4 °C 61.5 °F /  16.4 °C 30.03 in /  1016.8 hPa SE 3.0 mph /  4.8 km/h 9.0 mph /  14.5 km/h 83 % 0.00 in /  0 mm
12:33 67.3 °F /  19.6 °C 61.9 °F /  16.6 °C 30.02 in /  1016.5 hPa SSE 6.0 mph /  9.7 km/h 12.0 mph /  19.3 km/h 83 % 0.00 in /  0 mm
12:38 67.3 °F /  19.6 °C 61.5 °F /  16.4 °C 30.01 in /  1016.1 hPa SE 5.0 mph /  8 km/h 12.0 mph /  19.3 km/h 82 % 0.00 in /  0 mm
12:43 67.3 °F /  19.6 °C 61.5 °F /  16.4 °C 30.01 in /  1016.1 hPa SSE 6.0 mph /  9.7 km/h 12.0 mph /  19.3 km/h 82 % 0.00 in /  0 mm
12:47 67.3 °F /  19.6 °C 61.5 °F /  16.4 °C 30.00 in /  1015.8 hPa SSE 5.0 mph /  8 km/h 11.0 mph /  17.7 km/h 82 % 0.00 in /  0 mm
12:48 67.3 °F /  19.6 °C 61.5 °F /  16.4 °C 30.00 in /  1015.8 hPa SSE 6.0 mph /  9.7 km/h 11.0 mph /  17.7 km/h 82 % 0.00 in /  0 mm
12:53 67.5 °F /  19.7 °C 61.3 °F /  16.3 °C 29.99 in /  1015.5 hPa SE 2.0 mph /  3.2 km/h 11.0 mph /  17.7 km/h 81 % 0.00 in /  0 mm
12:58 67.6 °F /  19.8 °C 61.5 °F /  16.4 °C 29.99 in /  1015.5 hPa SSE 6.0 mph /  9.7 km/h 11.0 mph /  17.7 km/h 81 % 0.00 in /  0 mm
13:00 67.6 °F /  19.8 °C 61.2 °F /  16.2 °C 29.99 in /  1015.5 hPa South 6.0 mph /  9.7 km/h 11.0 mph /  17.7 km/h 80 % 0.00 in /  0 mm
13:05 67.6 °F /  19.8 °C 61.2 °F /  16.2 °C 29.99 in /  1015.5 hPa SE 11.0 mph /  17.7 km/h 11.0 mph /  17.7 km/h 80 % 0.00 in /  0 mm
13:09 67.6 °F /  19.8 °C 61.2 °F /  16.2 °C 29.98 in /  1015.1 hPa SSE 7.0 mph /  11.3 km/h 11.0 mph /  17.7 km/h 80 % 0.00 in /  0 mm
13:14 67.6 °F /  19.8 °C 61.2 °F /  16.2 °C 29.98 in /  1015.1 hPa SSW 1.0 mph /  1.6 km/h 13.0 mph /  20.9 km/h 80 % 0.00 in /  0 mm
13:19 67.8 °F /  19.9 °C 61.0 °F /  16.1 °C 29.98 in /  1015.1 hPa SSE 8.0 mph /  12.9 km/h 13.0 mph /  20.9 km/h 79 % 0.00 in /  0 mm
13:24 68.2 °F /  20.1 °C 61.7 °F /  16.5 °C 29.97 in /  1014.8 hPa SSE 4.0 mph /  6.4 km/h 13.0 mph /  20.9 km/h 80 % 0.00 in /  0 mm
13:29 68.4 °F /  20.2 °C 61.5 °F /  16.4 °C 29.97 in /  1014.8 hPa SW 3.0 mph /  4.8 km/h 12.0 mph /  19.3 km/h 79 % 0.00 in /  0 mm
13:34 68.5 °F /  20.3 °C 61.7 °F /  16.5 °C 29.97 in /  1014.8 hPa SE 4.0 mph /  6.4 km/h 12.0 mph /  19.3 km/h 79 % 0.00 in /  0 mm
13:37 68.5 °F /  20.3 °C 61.7 °F /  16.5 °C 29.97 in /  1014.8 hPa SSE 3.0 mph /  4.8 km/h 10.0 mph /  16.1 km/h 79 % 0.00 in /  0 mm
13:42 68.4 °F /  20.2 °C 61.5 °F /  16.4 °C 29.96 in /  1014.4 hPa ESE 8.0 mph /  12.9 km/h 8.0 mph /  12.9 km/h 79 % 0.00 in /  0 mm
13:47 68.2 °F /  20.1 °C 61.3 °F /  16.3 °C 29.96 in /  1014.4 hPa SE 3.0 mph /  4.8 km/h 9.0 mph /  14.5 km/h 79 % 0.00 in /  0 mm
13:52 68.2 °F /  20.1 °C 61.7 °F /  16.5 °C 29.96 in /  1014.4 hPa SSE 5.0 mph /  8 km/h 9.0 mph /  14.5 km/h 80 % 0.00 in /  0 mm
13:53 68.2 °F /  20.1 °C 61.7 °F /  16.5 °C 29.96 in /  1014.4 hPa ESE 4.0 mph /  6.4 km/h 9.0 mph /  14.5 km/h 80 % 0.00 in /  0 mm
13:58 67.8 °F /  19.9 °C 61.3 °F /  16.3 °C 29.96 in /  1014.4 hPa SSE 3.0 mph /  4.8 km/h 9.0 mph /  14.5 km/h 80 % 0.00 in /  0 mm
14:03 67.6 °F /  19.8 °C 61.5 °F /  16.4 °C 29.95 in /  1014.1 hPa South 2.0 mph /  3.2 km/h 8.0 mph /  12.9 km/h 81 % 0.00 in /  0 mm
14:08 67.6 °F /  19.8 °C 61.5 °F /  16.4 °C 29.95 in /  1014.1 hPa SE 3.0 mph /  4.8 km/h 7.0 mph /  11.3 km/h 81 % 0.00 in /  0 mm
14:13 67.5 °F /  19.7 °C 61.3 °F /  16.3 °C 29.94 in /  1013.8 hPa SE 4.0 mph /  6.4 km/h 8.0 mph /  12.9 km/h 81 % 0.00 in /  0 mm
14:18 67.3 °F /  19.6 °C 61.2 °F /  16.2 °C 29.94 in /  1013.8 hPa SSE 7.0 mph /  11.3 km/h 10.0 mph /  16.1 km/h 81 % 0.00 in /  0 mm
14:23 67.3 °F /  19.6 °C 61.5 °F /  16.4 °C 29.94 in /  1013.8 hPa SSE 2.0 mph /  3.2 km/h 10.0 mph /  16.1 km/h 82 % 0.00 in /  0 mm
14:26 67.3 °F /  19.6 °C 61.5 °F /  16.4 °C 29.94 in /  1013.8 hPa SSE 4.0 mph /  6.4 km/h 10.0 mph /  16.1 km/h 82 % 0.00 in /  0 mm
14:31 67.1 °F /  19.5 °C 61.3 °F /  16.3 °C 29.94 in /  1013.8 hPa SSE 4.0 mph /  6.4 km/h 10.0 mph /  16.1 km/h 82 % 0.00 in /  0 mm
14:37 66.9 °F /  19.4 °C 61.2 °F /  16.2 °C 29.94 in /  1013.8 hPa ESE 3.0 mph /  4.8 km/h 9.0 mph /  14.5 km/h 82 % 0.00 in /  0 mm
14:39 66.9 °F /  19.4 °C 61.2 °F /  16.2 °C 29.94 in /  1013.8 hPa SE 1.0 mph /  1.6 km/h 9.0 mph /  14.5 km/h 82 % 0.00 in /  0 mm
14:44 66.9 °F /  19.4 °C 61.2 °F /  16.2 °C 29.93 in /  1013.4 hPa SE 3.0 mph /  4.8 km/h 6.0 mph /  9.7 km/h 82 % 0.00 in /  0 mm
14:49 66.7 °F /  19.3 °C 61.3 °F /  16.3 °C 29.93 in /  1013.4 hPa SSE 2.0 mph /  3.2 km/h 6.0 mph /  9.7 km/h 83 % 0.00 in /  0 mm
14:55 66.6 °F /  19.2 °C 61.2 °F /  16.2 °C 29.93 in /  1013.4 hPa East 3.0 mph /  4.8 km/h 6.0 mph /  9.7 km/h 83 % 0.00 in /  0 mm
15:00 66.6 °F /  19.2 °C 61.2 °F /  16.2 °C 29.93 in /  1013.4 hPa SSE 1.0 mph /  1.6 km/h 6.0 mph /  9.7 km/h 83 % 0.00 in /  0 mm
15:05 66.4 °F /  19.1 °C 61.0 °F /  16.1 °C 29.92 in /  1013.1 hPa SE 2.0 mph /  3.2 km/h 6.0 mph /  9.7 km/h 83 % 0.00 in /  0 mm
15:10 66.4 °F /  19.1 °C 61.3 °F /  16.3 °C 29.92 in /  1013.1 hPa ESE 2.0 mph /  3.2 km/h 4.0 mph /  6.4 km/h 84 % 0.00 in /  0 mm
15:11 66.4 °F /  19.1 °C 61.3 °F /  16.3 °C 29.92 in /  1013.1 hPa ESE 1.0 mph /  1.6 km/h 4.0 mph /  6.4 km/h 84 % 0.00 in /  0 mm
15:16 66.2 °F /  19 °C 61.2 °F /  16.2 °C 29.92 in /  1013.1 hPa Calm   4.0 mph /  6.4 km/h 84 % 0.00 in /  0 mm
15:22 66.0 °F /  18.9 °C 61.0 °F /  16.1 °C 29.92 in /  1013.1 hPa ESE 1.0 mph /  1.6 km/h 4.0 mph /  6.4 km/h 84 % 0.00 in /  0 mm
15:27 66.0 °F /  18.9 °C 61.0 °F /  16.1 °C 29.92 in /  1013.1 hPa SE 1.0 mph /  1.6 km/h 4.0 mph /  6.4 km/h 84 % 0.00 in /  0 mm
15:32 66.0 °F /  18.9 °C 61.3 °F /  16.3 °C 29.92 in /  1013.1 hPa Calm   4.0 mph /  6.4 km/h 85 % 0.00 in /  0 mm
15:33 66.0 °F /  18.9 °C 61.3 °F /  16.3 °C 29.92 in /  1013.1 hPa South 2.0 mph /  3.2 km/h 4.0 mph /  6.4 km/h 85 % 0.00 in /  0 mm
15:38 65.8 °F /  18.8 °C 61.2 °F /  16.2 °C 29.92 in /  1013.1 hPa SE 3.0 mph /  4.8 km/h 4.0 mph /  6.4 km/h 85 % 0.00 in /  0 mm
15:42 65.8 °F /  18.8 °C 61.2 °F /  16.2 °C 29.92 in /  1013.1 hPa SSE 2.0 mph /  3.2 km/h 4.0 mph /  6.4 km/h 85 % 0.00 in /  0 mm
15:43 65.8 °F /  18.8 °C 61.2 °F /  16.2 °C 29.92 in /  1013.1 hPa SE 3.0 mph /  4.8 km/h 4.0 mph /  6.4 km/h 85 % 0.00 in /  0 mm
15:49 65.8 °F /  18.8 °C 61.2 °F /  16.2 °C 29.92 in /  1013.1 hPa SE 2.0 mph /  3.2 km/h 4.0 mph /  6.4 km/h 85 % 0.00 in /  0 mm
15:54 65.7 °F /  18.7 °C 61.3 °F /  16.3 °C 29.92 in /  1013.1 hPa South 1.0 mph /  1.6 km/h 4.0 mph /  6.4 km/h 86 % 0.00 in /  0 mm
15:59 65.5 °F /  18.6 °C 61.2 °F /  16.2 °C 29.93 in /  1013.4 hPa SE 4.0 mph /  6.4 km/h 5.0 mph /  8 km/h 86 % 0.00 in /  0 mm
16:04 65.5 °F /  18.6 °C 61.2 °F /  16.2 °C 29.93 in /  1013.4 hPa SE 3.0 mph /  4.8 km/h 5.0 mph /  8 km/h 86 % 0.00 in /  0 mm
16:09 65.3 °F /  18.5 °C 61.0 °F /  16.1 °C 29.93 in /  1013.4 hPa SE 2.0 mph /  3.2 km/h 5.0 mph /  8 km/h 86 % 0.00 in /  0 mm
16:12 65.1 °F /  18.4 °C 60.8 °F /  16 °C 29.93 in /  1013.4 hPa SE 2.0 mph /  3.2 km/h 5.0 mph /  8 km/h 86 % 0.00 in /  0 mm
16:17 65.1 °F /  18.4 °C 61.2 °F /  16.2 °C 29.93 in /  1013.4 hPa Calm   4.0 mph /  6.4 km/h 87 % 0.00 in /  0 mm
16:22 64.9 °F /  18.3 °C 61.0 °F /  16.1 °C 29.94 in /  1013.8 hPa SE 1.0 mph /  1.6 km/h 4.0 mph /  6.4 km/h 87 % 0.00 in /  0 mm
16:27 64.9 °F /  18.3 °C 61.0 °F /  16.1 °C 29.94 in /  1013.8 hPa ESE 1.0 mph /  1.6 km/h 4.0 mph /  6.4 km/h 87 % 0.00 in /  0 mm
16:32 64.9 °F /  18.3 °C 61.0 °F /  16.1 °C 29.94 in /  1013.8 hPa Calm   3.0 mph /  4.8 km/h 87 % 0.00 in /  0 mm
16:37 64.8 °F /  18.2 °C 60.8 °F /  16 °C 29.94 in /  1013.8 hPa Calm   2.0 mph /  3.2 km/h 87 % 0.00 in /  0 mm
16:41 64.8 °F /  18.2 °C 61.2 °F /  16.2 °C 29.94 in /  1013.8 hPa Calm   2.0 mph /  3.2 km/h 88 % 0.00 in /  0 mm
16:46 64.6 °F /  18.1 °C 61.0 °F /  16.1 °C 29.94 in /  1013.8 hPa Calm   1.0 mph /  1.6 km/h 88 % 0.00 in /  0 mm
16:50 64.4 °F /  18 °C 60.8 °F /  16 °C 29.93 in /  1013.4 hPa ESE 1.0 mph /  1.6 km/h 1.0 mph /  1.6 km/h 88 % 0.00 in /  0 mm
16:52 64.4 °F /  18 °C 60.8 °F /  16 °C 29.93 in /  1013.4 hPa ESE 1.0 mph /  1.6 km/h 1.0 mph /  1.6 km/h 88 % 0.00 in /  0 mm
16:57 64.2 °F /  17.9 °C 60.6 °F /  15.9 °C 29.93 in /  1013.4 hPa East 1.0 mph /  1.6 km/h 2.0 mph /  3.2 km/h 88 % 0.00 in /  0 mm
17:02 64.0 °F /  17.8 °C 60.4 °F /  15.8 °C 29.93 in /  1013.4 hPa Calm   3.0 mph /  4.8 km/h 88 % 0.00 in /  0 mm
17:07 64.0 °F /  17.8 °C 60.8 °F /  16 °C 29.93 in /  1013.4 hPa SE 2.0 mph /  3.2 km/h 3.0 mph /  4.8 km/h 89 % 0.00 in /  0 mm
17:08 63.9 °F /  17.7 °C 60.6 °F /  15.9 °C 29.93 in /  1013.4 hPa Calm   3.0 mph /  4.8 km/h 89 % 0.00 in /  0 mm
17:12 63.9 °F /  17.7 °C 60.6 °F /  15.9 °C 29.93 in /  1013.4 hPa SE 1.0 mph /  1.6 km/h 3.0 mph /  4.8 km/h 89 % 0.00 in /  0 mm
17:16 63.7 °F /  17.6 °C 60.4 °F /  15.8 °C 29.93 in /  1013.4 hPa Calm   2.0 mph /  3.2 km/h 89 % 0.00 in /  0 mm
17:18 63.7 °F /  17.6 °C 60.4 °F /  15.8 °C 29.93 in /  1013.4 hPa Calm   2.0 mph /  3.2 km/h 89 % 0.00 in /  0 mm
17:23 63.7 °F /  17.6 °C 60.4 °F /  15.8 °C 29.93 in /  1013.4 hPa Calm   2.0 mph /  3.2 km/h 89 % 0.00 in /  0 mm
17:28 63.3 °F /  17.4 °C 60.3 °F /  15.7 °C 29.93 in /  1013.4 hPa Calm   2.0 mph /  3.2 km/h 90 % 0.00 in /  0 mm
17:33 63.3 °F /  17.4 °C 60.3 °F /  15.7 °C 29.93 in /  1013.4 hPa ESE 1.0 mph /  1.6 km/h 2.0 mph /  3.2 km/h 90 % 0.00 in /  0 mm
17:34 63.3 °F /  17.4 °C 60.3 °F /  15.7 °C 29.93 in /  1013.4 hPa Calm   2.0 mph /  3.2 km/h 90 % 0.00 in /  0 mm
17:39 63.1 °F /  17.3 °C 60.1 °F /  15.6 °C 29.93 in /  1013.4 hPa Calm   1.0 mph /  1.6 km/h 90 % 0.00 in /  0 mm
17:44 63.1 °F /  17.3 °C 60.1 °F /  15.6 °C 29.93 in /  1013.4 hPa Calm   1.0 mph /  1.6 km/h 90 % 0.00 in /  0 mm
17:47 63.1 °F /  17.3 °C 60.4 °F /  15.8 °C 29.93 in /  1013.4 hPa Calm   1.0 mph /  1.6 km/h 91 % 0.00 in /  0 mm
17:52 63.1 °F /  17.3 °C 60.4 °F /  15.8 °C 29.93 in /  1013.4 hPa East 1.0 mph /  1.6 km/h 1.0 mph /  1.6 km/h 91 % 0.00 in /  0 mm
17:54 63.1 °F /  17.3 °C 60.4 °F /  15.8 °C 29.93 in /  1013.4 hPa Calm   1.0 mph /  1.6 km/h 91 % 0.00 in /  0 mm
17:59 63.1 °F /  17.3 °C 60.4 °F /  15.8 °C 29.94 in /  1013.8 hPa Calm   1.0 mph /  1.6 km/h 91 % 0.00 in /  0 mm
18:01 63.0 °F /  17.2 °C 60.3 °F /  15.7 °C 29.94 in /  1013.8 hPa Calm   1.0 mph /  1.6 km/h 91 % 0.00 in /  0 mm
18:06 63.0 °F /  17.2 °C 60.3 °F /  15.7 °C 29.94 in /  1013.8 hPa Calm   1.0 mph /  1.6 km/h 91 % 0.00 in /  0 mm
18:09 63.0 °F /  17.2 °C 60.3 °F /  15.7 °C 29.94 in /  1013.8 hPa Calm   1.0 mph /  1.6 km/h 91 % 0.00 in /  0 mm
18:14 63.0 °F /  17.2 °C 60.3 °F /  15.7 °C 29.94 in /  1013.8 hPa Calm   1.0 mph /  1.6 km/h 91 % 0.00 in /  0 mm
18:19 63.0 °F /  17.2 °C 60.3 °F /  15.7 °C 29.94 in /  1013.8 hPa Calm   1.0 mph /  1.6 km/h 91 % 0.00 in /  0 mm
18:24 63.0 °F /  17.2 °C 60.3 °F /  15.7 °C 29.94 in /  1013.8 hPa Calm   1.0 mph /  1.6 km/h 91 % 0.00 in /  0 mm
18:29 63.0 °F /  17.2 °C 60.3 °F /  15.7 °C 29.94 in /  1013.8 hPa Calm   1.0 mph /  1.6 km/h 91 % 0.00 in /  0 mm
18:30 63.0 °F /  17.2 °C 60.3 °F /  15.7 °C 29.94 in /  1013.8 hPa Calm   1.0 mph /  1.6 km/h 91 % 0.00 in /  0 mm
18:35 63.0 °F /  17.2 °C 60.3 °F /  15.7 °C 29.94 in /  1013.8 hPa Calm   1.0 mph /  1.6 km/h 91 % 0.00 in /  0 mm
18:40 63.0 °F /  17.2 °C 60.3 °F /  15.7 °C 29.94 in /  1013.8 hPa ESE 1.0 mph /  1.6 km/h 1.0 mph /  1.6 km/h 91 % 0.00 in /  0 mm
18:45 62.8 °F /  17.1 °C 60.1 °F /  15.6 °C 29.94 in /  1013.8 hPa Calm   1.0 mph /  1.6 km/h 91 % 0.00 in /  0 mm
18:48 62.8 °F /  17.1 °C 60.4 °F /  15.8 °C 29.94 in /  1013.8 hPa SE 1.0 mph /  1.6 km/h 1.0 mph /  1.6 km/h 92 % 0.00 in /  0 mm
18:51 62.8 °F /  17.1 °C 60.4 °F /  15.8 °C 29.94 in /  1013.8 hPa SE 1.0 mph /  1.6 km/h 1.0 mph /  1.6 km/h 92 % 0.00 in /  0 mm
18:56 62.8 °F /  17.1 °C 60.4 °F /  15.8 °C 29.94 in /  1013.8 hPa Calm   1.0 mph /  1.6 km/h 92 % 0.00 in /  0 mm
19:01 62.8 °F /  17.1 °C 60.4 °F /  15.8 °C 29.94 in /  1013.8 hPa Calm   1.0 mph /  1.6 km/h 92 % 0.00 in /  0 mm
19:06 62.8 °F /  17.1 °C 60.4 °F /  15.8 °C 29.94 in /  1013.8 hPa Calm   1.0 mph /  1.6 km/h 92 % 0.00 in /  0 mm
19:09 62.6 °F /  17 °C 60.3 °F /  15.7 °C 29.94 in /  1013.8 hPa Calm   1.0 mph /  1.6 km/h 92 % 0.00 in /  0 mm
19:14 62.6 °F /  17 °C 60.3 °F /  15.7 °C 29.94 in /  1013.8 hPa Calm   1.0 mph /  1.6 km/h 92 % 0.00 in /  0 mm
19:15 62.4 °F /  16.9 °C 60.1 °F /  15.6 °C 29.94 in /  1013.8 hPa Calm   1.0 mph /  1.6 km/h 92 % 0.00 in /  0 mm
19:20 62.4 °F /  16.9 °C 60.1 °F /  15.6 °C 29.94 in /  1013.8 hPa Calm   1.0 mph /  1.6 km/h 92 % 0.00 in /  0 mm
19:21 62.4 °F /  16.9 °C 60.1 °F /  15.6 °C 29.94 in /  1013.8 hPa Calm   1.0 mph /  1.6 km/h 92 % 0.00 in /  0 mm
19:26 62.4 °F /  16.9 °C 60.1 °F /  15.6 °C 29.94 in /  1013.8 hPa Calm   1.0 mph /  1.6 km/h 92 % 0.00 in /  0 mm
19:31 62.2 °F /  16.8 °C 59.9 °F /  15.5 °C 29.94 in /  1013.8 hPa Calm   1.0 mph /  1.6 km/h 92 % 0.00 in /  0 mm
19:36 62.2 °F /  16.8 °C 59.9 °F /  15.5 °C 29.94 in /  1013.8 hPa Calm   1.0 mph /  1.6 km/h 92 % 0.00 in /  0 mm
19:39 62.2 °F /  16.8 °C 59.9 °F /  15.5 °C 29.94 in /  1013.8 hPa Calm   1.0 mph /  1.6 km/h 92 % 0.00 in /  0 mm
19:44 62.1 °F /  16.7 °C 60.1 °F /  15.6 °C 29.93 in /  1013.4 hPa SE 2.0 mph /  3.2 km/h 2.0 mph /  3.2 km/h 93 % 0.00 in /  0 mm
19:46 62.1 °F /  16.7 °C 60.1 °F /  15.6 °C 29.93 in /  1013.4 hPa SE 2.0 mph /  3.2 km/h 3.0 mph /  4.8 km/h 93 % 0.00 in /  0 mm
19:51 62.2 °F /  16.8 °C 60.3 °F /  15.7 °C 29.92 in /  1013.1 hPa SE 3.0 mph /  4.8 km/h 7.0 mph /  11.3 km/h 93 % 0.00 in /  0 mm
19:55 62.4 °F /  16.9 °C 60.4 °F /  15.8 °C 29.92 in /  1013.1 hPa NE 1.0 mph /  1.6 km/h 7.0 mph /  11.3 km/h 93 % 0.00 in /  0 mm
20:00 62.4 °F /  16.9 °C 60.4 °F /  15.8 °C 29.93 in /  1013.4 hPa NW 2.0 mph /  3.2 km/h 7.0 mph /  11.3 km/h 93 % 0.00 in /  0 mm
20:05 62.4 °F /  16.9 °C 60.4 °F /  15.8 °C 29.93 in /  1013.4 hPa Calm   6.0 mph /  9.7 km/h 93 % 0.00 in /  0 mm
20:12 62.4 °F /  16.9 °C 60.4 °F /  15.8 °C 29.93 in /  1013.4 hPa SSE 1.0 mph /  1.6 km/h 3.0 mph /  4.8 km/h 93 % 0.00 in /  0 mm
20:15 62.4 °F /  16.9 °C 60.4 °F /  15.8 °C 29.93 in /  1013.4 hPa SSW 2.0 mph /  3.2 km/h 3.0 mph /  4.8 km/h 93 % 0.00 in /  0 mm
20:21 62.6 °F /  17 °C 60.8 °F /  16 °C 29.92 in /  1013.1 hPa SSE 2.0 mph /  3.2 km/h 7.0 mph /  11.3 km/h 94 % 0.00 in /  0 mm
20:26 62.8 °F /  17.1 °C 61.0 °F /  16.1 °C 29.92 in /  1013.1 hPa South 6.0 mph /  9.7 km/h 7.0 mph /  11.3 km/h 94 % 0.00 in /  0 mm
20:31 62.8 °F /  17.1 °C 61.0 °F /  16.1 °C 29.91 in /  1012.8 hPa SSE 4.0 mph /  6.4 km/h 7.0 mph /  11.3 km/h 94 % 0.00 in /  0 mm
20:36 62.8 °F /  17.1 °C 61.0 °F /  16.1 °C 29.91 in /  1012.8 hPa South 4.0 mph /  6.4 km/h 7.0 mph /  11.3 km/h 94 % 0.00 in /  0 mm
20:41 62.6 °F /  17 °C 60.8 °F /  16 °C 29.90 in /  1012.4 hPa SE 3.0 mph /  4.8 km/h 7.0 mph /  11.3 km/h 94 % 0.00 in /  0 mm
20:46 62.4 °F /  16.9 °C 61.0 °F /  16.1 °C 29.90 in /  1012.4 hPa ESE 3.0 mph /  4.8 km/h 8.0 mph /  12.9 km/h 95 % 0.00 in /  0 mm
20:51 62.4 °F /  16.9 °C 61.0 °F /  16.1 °C 29.90 in /  1012.4 hPa SSE 3.0 mph /  4.8 km/h 8.0 mph /  12.9 km/h 95 % 0.00 in /  0 mm
20:56 62.4 °F /  16.9 °C 61.0 °F /  16.1 °C 29.89 in /  1012.1 hPa SE 2.0 mph /  3.2 km/h 8.0 mph /  12.9 km/h 95 % 0.00 in /  0 mm
21:01 62.2 °F /  16.8 °C 60.8 °F /  16 °C 29.89 in /  1012.1 hPa SE 4.0 mph /  6.4 km/h 7.0 mph /  11.3 km/h 95 % 0.00 in /  0 mm
21:06 62.2 °F /  16.8 °C 60.8 °F /  16 °C 29.89 in /  1012.1 hPa SE 2.0 mph /  3.2 km/h 7.0 mph /  11.3 km/h 95 % 0.00 in /  0 mm
21:09 62.2 °F /  16.8 °C 60.8 °F /  16 °C 29.89 in /  1012.1 hPa ESE 2.0 mph /  3.2 km/h 7.0 mph /  11.3 km/h 95 % 0.00 in /  0 mm
21:12 62.2 °F /  16.8 °C 60.8 °F /  16 °C 29.89 in /  1012.1 hPa Calm   7.0 mph /  11.3 km/h 95 % 0.00 in /  0 mm
21:17 62.2 °F /  16.8 °C 60.8 °F /  16 °C 29.88 in /  1011.7 hPa SE 2.0 mph /  3.2 km/h 7.0 mph /  11.3 km/h 95 % 0.00 in /  0 mm
21:23 62.1 °F /  16.7 °C 60.6 °F /  15.9 °C 29.88 in /  1011.7 hPa South 2.0 mph /  3.2 km/h 5.0 mph /  8 km/h 95 % 0.00 in /  0 mm
21:28 62.1 °F /  16.7 °C 61.0 °F /  16.1 °C 29.89 in /  1012.1 hPa East 2.0 mph /  3.2 km/h 5.0 mph /  8 km/h 96 % 0.00 in /  0 mm
21:34 62.1 °F /  16.7 °C 61.0 °F /  16.1 °C 29.89 in /  1012.1 hPa Calm   5.0 mph /  8 km/h 96 % 0.00 in /  0 mm
21:43 62.1 °F /  16.7 °C 61.0 °F /  16.1 °C 29.88 in /  1011.7 hPa SE 3.0 mph /  4.8 km/h 5.0 mph /  8 km/h 96 % 0.00 in /  0 mm
21:56 62.1 °F /  16.7 °C 61.0 °F /  16.1 °C 29.88 in /  1011.7 hPa SSE 2.0 mph /  3.2 km/h 9.0 mph /  14.5 km/h 96 % 0.00 in /  0 mm
22:01 62.1 °F /  16.7 °C 61.0 °F /  16.1 °C 29.89 in /  1012.1 hPa Calm   9.0 mph /  14.5 km/h 96 % 0.00 in /  0 mm
22:15 62.1 °F /  16.7 °C 61.2 °F /  16.2 °C 29.89 in /  1012.1 hPa NNW 2.0 mph /  3.2 km/h 8.0 mph /  12.9 km/h 97 % 0.00 in /  0 mm
22:30 62.1 °F /  16.7 °C 61.0 °F /  16.1 °C 29.89 in /  1012.1 hPa NNE 1.0 mph /  1.6 km/h 10.0 mph /  16.1 km/h 96 % 0.00 in /  0 mm
22:41 61.3 °F /  16.3 °C 60.3 °F /  15.7 °C 29.88 in /  1011.7 hPa Calm   6.0 mph /  9.7 km/h 96 % 0.00 in /  0 mm
22:54 61.7 °F /  16.5 °C 60.8 °F /  16 °C 29.88 in /  1011.7 hPa SE 2.0 mph /  3.2 km/h 5.0 mph /  8 km/h 97 % 0.00 in /  0 mm
23:03 62.1 °F /  16.7 °C 61.5 °F /  16.4 °C 29.89 in /  1012.1 hPa West 1.0 mph /  1.6 km/h 5.0 mph /  8 km/h 98 % 0.00 in /  0 mm
23:08 62.4 °F /  16.9 °C 61.9 °F /  16.6 °C 29.88 in /  1011.7 hPa SSW 1.0 mph /  1.6 km/h 5.0 mph /  8 km/h 98 % 0.00 in /  0 mm
23:33 62.8 °F /  17.1 °C 62.2 °F /  16.8 °C 29.89 in /  1012.1 hPa NNW 3.0 mph /  4.8 km/h 4.0 mph /  6.4 km/h 98 % 0.00 in /  0 mm
23:46 62.4 °F /  16.9 °C 61.9 °F /  16.6 °C 29.89 in /  1012.1 hPa Calm   5.0 mph /  8 km/h 98 % 0.00 in /  0 mm
23:56 62.8 °F /  17.1 °C 62.2 °F /  16.8 °C 29.89 in /  1012.1 hPa Calm   3.0 mph /  4.8 km/h 98 % 0.00 in /  0 mm
Spring, Texas: Villages of Bridgestone
Compliments of Weather Underground - 3 mb

Script developed by  Jim McMurry - jmcmurry@mwt.net Adapted for the template by  Wim van der Kuil - Leuven-Template.eu

You find our weather info also at:

UK Metoffice

WeatherCloud

Weather Underground

Mid-South Weather Network

AWEKAS

Citizen Weather Observer Program (CWOP)

HAMweather, WeatherForYou, PWS Weather

Equipment we use:

Weather-station
Davis Vantage Vue

Weather-program
Meteohub

Weather-server
Debian 7.9 x86 (Guest)

Provider
DreamHost

Davis Vantage Vue

Meteohub

Debian 7.9 x86 (Guest)

DreamHost